sensor_id;sensor_type;location;lat;lon;timestamp;P1;durP1;ratioP1;P2;durP2;ratioP2
35506;SDS011;36461;52.018;21.036;2022-11-18T00:01:06;41.40;;;26.35;;
35506;SDS011;36461;52.018;21.036;2022-11-18T00:03:39;42.43;;;27.77;;
35506;SDS011;36461;52.018;21.036;2022-11-18T00:06:07;47.53;;;28.77;;
35506;SDS011;36461;52.018;21.036;2022-11-18T00:08:38;43.35;;;25.95;;
35506;SDS011;36461;52.018;21.036;2022-11-18T00:11:05;48.13;;;27.60;;
35506;SDS011;36461;52.018;21.036;2022-11-18T00:13:34;42.08;;;25.45;;
35506;SDS011;36461;52.018;21.036;2022-11-18T00:16:21;43.38;;;26.27;;
35506;SDS011;36461;52.018;21.036;2022-11-18T00:18:48;39.80;;;25.10;;
35506;SDS011;36461;52.018;21.036;2022-11-18T00:21:15;41.28;;;25.27;;
35506;SDS011;36461;52.018;21.036;2022-11-18T00:23:42;48.58;;;29.37;;
35506;SDS011;36461;52.018;21.036;2022-11-18T00:26:09;44.58;;;28.42;;
35506;SDS011;36461;52.018;21.036;2022-11-18T00:28:39;43.02;;;28.17;;
35506;SDS011;36461;52.018;21.036;2022-11-18T00:31:07;43.95;;;26.93;;
35506;SDS011;36461;52.018;21.036;2022-11-18T00:33:38;38.00;;;24.10;;
35506;SDS011;36461;52.018;21.036;2022-11-18T00:36:07;33.30;;;22.20;;
35506;SDS011;36461;52.018;21.036;2022-11-18T00:38:36;36.70;;;22.13;;
35506;SDS011;36461;52.018;21.036;2022-11-18T00:41:05;34.33;;;21.70;;
35506;SDS011;36461;52.018;21.036;2022-11-18T00:43:35;34.20;;;22.10;;
35506;SDS011;36461;52.018;21.036;2022-11-18T00:46:02;31.05;;;20.23;;
35506;SDS011;36461;52.018;21.036;2022-11-18T00:48:30;35.23;;;22.13;;
35506;SDS011;36461;52.018;21.036;2022-11-18T00:50:56;34.45;;;22.10;;
35506;SDS011;36461;52.018;21.036;2022-11-18T00:53:26;33.13;;;20.85;;
35506;SDS011;36461;52.018;21.036;2022-11-18T00:55:52;33.35;;;20.40;;
35506;SDS011;36461;52.018;21.036;2022-11-18T00:58:18;30.50;;;19.67;;
35506;SDS011;36461;52.018;21.036;2022-11-18T01:00:46;34.48;;;21.93;;
35506;SDS011;36461;52.018;21.036;2022-11-18T01:03:15;38.53;;;22.80;;
35506;SDS011;36461;52.018;21.036;2022-11-18T01:05:44;33.55;;;20.45;;
35506;SDS011;36461;52.018;21.036;2022-11-18T01:10:38;45.00;;;25.25;;
35506;SDS011;36461;52.018;21.036;2022-11-18T01:13:06;48.83;;;26.90;;
35506;SDS011;36461;52.018;21.036;2022-11-18T01:15:47;35.73;;;21.62;;
35506;SDS011;36461;52.018;21.036;2022-11-18T01:18:26;28.98;;;19.30;;
35506;SDS011;36461;52.018;21.036;2022-11-18T01:20:59;32.63;;;20.10;;
35506;SDS011;36461;52.018;21.036;2022-11-18T01:23:28;37.63;;;21.87;;
35506;SDS011;36461;52.018;21.036;2022-11-18T01:25:55;31.60;;;19.70;;
35506;SDS011;36461;52.018;21.036;2022-11-18T01:28:21;31.97;;;20.52;;
35506;SDS011;36461;52.018;21.036;2022-11-18T01:30:47;35.55;;;22.10;;
35506;SDS011;36461;52.018;21.036;2022-11-18T01:33:13;42.25;;;27.67;;
35506;SDS011;36461;52.018;21.036;2022-11-18T01:35:41;44.77;;;27.32;;
35506;SDS011;36461;52.018;21.036;2022-11-18T01:38:09;33.30;;;20.48;;
35506;SDS011;36461;52.018;21.036;2022-11-18T01:40:38;33.95;;;21.25;;
35506;SDS011;36461;52.018;21.036;2022-11-18T01:43:10;35.17;;;22.07;;
35506;SDS011;36461;52.018;21.036;2022-11-18T01:45:45;30.95;;;19.62;;
35506;SDS011;36461;52.018;21.036;2022-11-18T01:50:58;29.23;;;17.37;;
35506;SDS011;36461;52.018;21.036;2022-11-18T01:53:32;33.28;;;19.40;;
35506;SDS011;36461;52.018;21.036;2022-11-18T01:56:07;31.35;;;19.00;;
35506;SDS011;36461;52.018;21.036;2022-11-18T01:58:41;29.52;;;18.73;;
35506;SDS011;36461;52.018;21.036;2022-11-18T02:01:14;39.75;;;21.87;;
35506;SDS011;36461;52.018;21.036;2022-11-18T02:03:41;51.15;;;25.48;;
35506;SDS011;36461;52.018;21.036;2022-11-18T02:06:10;34.25;;;19.67;;
35506;SDS011;36461;52.018;21.036;2022-11-18T02:08:36;27.73;;;17.35;;
35506;SDS011;36461;52.018;21.036;2022-11-18T02:11:08;25.88;;;17.30;;
35506;SDS011;36461;52.018;21.036;2022-11-18T02:13:39;27.10;;;16.50;;
35506;SDS011;36461;52.018;21.036;2022-11-18T02:16:10;21.52;;;15.60;;
35506;SDS011;36461;52.018;21.036;2022-11-18T02:18:50;20.70;;;14.93;;
35506;SDS011;36461;52.018;21.036;2022-11-18T02:27:01;26.33;;;16.02;;
35506;SDS011;36461;52.018;21.036;2022-11-18T02:32:12;28.83;;;17.80;;
35506;SDS011;36461;52.018;21.036;2022-11-18T02:37:35;23.80;;;16.37;;
35506;SDS011;36461;52.018;21.036;2022-11-18T02:42:56;21.97;;;15.08;;
35506;SDS011;36461;52.018;21.036;2022-11-18T02:45:28;28.83;;;18.50;;
35506;SDS011;36461;52.018;21.036;2022-11-18T02:47:56;24.85;;;16.35;;
35506;SDS011;36461;52.018;21.036;2022-11-18T02:50:27;17.98;;;13.55;;
35506;SDS011;36461;52.018;21.036;2022-11-18T02:52:57;20.15;;;14.45;;
35506;SDS011;36461;52.018;21.036;2022-11-18T02:55:28;21.27;;;14.65;;
35506;SDS011;36461;52.018;21.036;2022-11-18T02:57:57;19.23;;;15.00;;
35506;SDS011;36461;52.018;21.036;2022-11-18T03:00:25;22.32;;;13.25;;
35506;SDS011;36461;52.018;21.036;2022-11-18T03:02:52;18.27;;;13.28;;
35506;SDS011;36461;52.018;21.036;2022-11-18T03:05:21;19.05;;;14.10;;
35506;SDS011;36461;52.018;21.036;2022-11-18T03:07:58;17.82;;;13.53;;
35506;SDS011;36461;52.018;21.036;2022-11-18T03:10:29;17.87;;;13.10;;
35506;SDS011;36461;52.018;21.036;2022-11-18T03:15:54;29.48;;;18.32;;
35506;SDS011;36461;52.018;21.036;2022-11-18T03:18:30;19.23;;;13.40;;
35506;SDS011;36461;52.018;21.036;2022-11-18T03:21:07;35.65;;;19.50;;
35506;SDS011;36461;52.018;21.036;2022-11-18T03:23:46;24.45;;;16.27;;
35506;SDS011;36461;52.018;21.036;2022-11-18T03:26:24;19.07;;;14.15;;
35506;SDS011;36461;52.018;21.036;2022-11-18T03:31:38;19.35;;;13.62;;
35506;SDS011;36461;52.018;21.036;2022-11-18T03:34:09;16.37;;;12.90;;
35506;SDS011;36461;52.018;21.036;2022-11-18T03:36:56;24.80;;;16.48;;
35506;SDS011;36461;52.018;21.036;2022-11-18T03:39:30;23.27;;;15.18;;
35506;SDS011;36461;52.018;21.036;2022-11-18T03:42:01;19.17;;;15.05;;
35506;SDS011;36461;52.018;21.036;2022-11-18T03:44:38;21.60;;;15.72;;
35506;SDS011;36461;52.018;21.036;2022-11-18T03:47:11;19.07;;;14.28;;
35506;SDS011;36461;52.018;21.036;2022-11-18T03:49:45;20.85;;;14.78;;
35506;SDS011;36461;52.018;21.036;2022-11-18T03:52:23;19.62;;;14.73;;
35506;SDS011;36461;52.018;21.036;2022-11-18T03:54:53;19.05;;;13.88;;
35506;SDS011;36461;52.018;21.036;2022-11-18T03:58:10;20.40;;;15.50;;
35506;SDS011;36461;52.018;21.036;2022-11-18T04:00:23;19.02;;;14.20;;
35506;SDS011;36461;52.018;21.036;2022-11-18T04:02:55;19.65;;;14.28;;
35506;SDS011;36461;52.018;21.036;2022-11-18T04:05:21;20.35;;;14.40;;
35506;SDS011;36461;52.018;21.036;2022-11-18T04:08:00;21.48;;;14.95;;
35506;SDS011;36461;52.018;21.036;2022-11-18T04:13:17;20.08;;;14.78;;
35506;SDS011;36461;52.018;21.036;2022-11-18T04:15:47;18.95;;;14.47;;
35506;SDS011;36461;52.018;21.036;2022-11-18T04:18:14;22.10;;;15.58;;
35506;SDS011;36461;52.018;21.036;2022-11-18T04:20:41;22.32;;;15.23;;
35506;SDS011;36461;52.018;21.036;2022-11-18T04:23:07;21.23;;;14.45;;
35506;SDS011;36461;52.018;21.036;2022-11-18T04:25:34;20.23;;;15.35;;
35506;SDS011;36461;52.018;21.036;2022-11-18T04:30:27;21.37;;;14.60;;
35506;SDS011;36461;52.018;21.036;2022-11-18T04:35:20;19.60;;;13.88;;
35506;SDS011;36461;52.018;21.036;2022-11-18T04:37:46;21.65;;;14.78;;
35506;SDS011;36461;52.018;21.036;2022-11-18T04:40:13;20.70;;;14.35;;
35506;SDS011;36461;52.018;21.036;2022-11-18T04:42:40;21.15;;;15.13;;
35506;SDS011;36461;52.018;21.036;2022-11-18T04:45:07;20.32;;;14.45;;
35506;SDS011;36461;52.018;21.036;2022-11-18T04:47:35;18.85;;;13.65;;
35506;SDS011;36461;52.018;21.036;2022-11-18T04:50:02;19.35;;;13.88;;
35506;SDS011;36461;52.018;21.036;2022-11-18T04:52:30;23.05;;;15.60;;
35506;SDS011;36461;52.018;21.036;2022-11-18T04:54:56;21.05;;;15.13;;
35506;SDS011;36461;52.018;21.036;2022-11-18T04:57:23;21.25;;;14.73;;
35506;SDS011;36461;52.018;21.036;2022-11-18T04:59:49;25.50;;;16.85;;
35506;SDS011;36461;52.018;21.036;2022-11-18T05:02:15;25.27;;;16.73;;
35506;SDS011;36461;52.018;21.036;2022-11-18T05:04:41;21.85;;;16.27;;
35506;SDS011;36461;52.018;21.036;2022-11-18T05:07:11;22.00;;;15.28;;
35506;SDS011;36461;52.018;21.036;2022-11-18T05:09:38;25.12;;;15.68;;
35506;SDS011;36461;52.018;21.036;2022-11-18T05:12:05;20.95;;;15.18;;
35506;SDS011;36461;52.018;21.036;2022-11-18T05:14:51;23.92;;;15.38;;
35506;SDS011;36461;52.018;21.036;2022-11-18T05:17:18;20.75;;;15.13;;
35506;SDS011;36461;52.018;21.036;2022-11-18T05:19:44;20.68;;;15.03;;
35506;SDS011;36461;52.018;21.036;2022-11-18T05:22:11;24.30;;;17.07;;
35506;SDS011;36461;52.018;21.036;2022-11-18T05:24:39;18.57;;;14.45;;
35506;SDS011;36461;52.018;21.036;2022-11-18T05:27:05;24.92;;;16.12;;
35506;SDS011;36461;52.018;21.036;2022-11-18T05:29:32;22.67;;;16.02;;
35506;SDS011;36461;52.018;21.036;2022-11-18T05:31:59;17.25;;;12.98;;
35506;SDS011;36461;52.018;21.036;2022-11-18T05:34:25;20.32;;;14.65;;
35506;SDS011;36461;52.018;21.036;2022-11-18T05:36:51;22.85;;;14.23;;
35506;SDS011;36461;52.018;21.036;2022-11-18T05:39:17;21.93;;;14.07;;
35506;SDS011;36461;52.018;21.036;2022-11-18T05:41:44;25.92;;;16.77;;
35506;SDS011;36461;52.018;21.036;2022-11-18T05:44:29;21.33;;;14.25;;
35506;SDS011;36461;52.018;21.036;2022-11-18T05:46:55;22.67;;;15.15;;
35506;SDS011;36461;52.018;21.036;2022-11-18T05:49:21;20.62;;;13.90;;
35506;SDS011;36461;52.018;21.036;2022-11-18T05:51:48;19.45;;;13.50;;
35506;SDS011;36461;52.018;21.036;2022-11-18T05:54:15;20.17;;;13.18;;
35506;SDS011;36461;52.018;21.036;2022-11-18T05:56:45;22.58;;;14.18;;
35506;SDS011;36461;52.018;21.036;2022-11-18T05:59:13;17.65;;;12.53;;
35506;SDS011;36461;52.018;21.036;2022-11-18T06:01:42;16.32;;;12.10;;
35506;SDS011;36461;52.018;21.036;2022-11-18T06:04:23;18.60;;;11.90;;
35506;SDS011;36461;52.018;21.036;2022-11-18T06:07:19;17.32;;;12.18;;
35506;SDS011;36461;52.018;21.036;2022-11-18T06:09:49;14.80;;;10.95;;
35506;SDS011;36461;52.018;21.036;2022-11-18T06:12:20;14.28;;;10.45;;
35506;SDS011;36461;52.018;21.036;2022-11-18T06:14:53;13.38;;;9.48;;
35506;SDS011;36461;52.018;21.036;2022-11-18T06:17:40;13.10;;;9.00;;
35506;SDS011;36461;52.018;21.036;2022-11-18T06:20:03;11.28;;;7.67;;
35506;SDS011;36461;52.018;21.036;2022-11-18T06:22:32;11.95;;;8.18;;
35506;SDS011;36461;52.018;21.036;2022-11-18T06:25:00;10.70;;;7.67;;
35506;SDS011;36461;52.018;21.036;2022-11-18T06:27:28;11.88;;;8.08;;
35506;SDS011;36461;52.018;21.036;2022-11-18T06:29:55;10.20;;;7.33;;
35506;SDS011;36461;52.018;21.036;2022-11-18T06:32:22;11.53;;;8.33;;
35506;SDS011;36461;52.018;21.036;2022-11-18T06:34:48;8.83;;;6.92;;
35506;SDS011;36461;52.018;21.036;2022-11-18T06:37:15;11.30;;;7.40;;
35506;SDS011;36461;52.018;21.036;2022-11-18T06:39:45;9.20;;;6.70;;
35506;SDS011;36461;52.018;21.036;2022-11-18T06:42:12;11.48;;;7.03;;
35506;SDS011;36461;52.018;21.036;2022-11-18T06:44:43;8.25;;;6.62;;
35506;SDS011;36461;52.018;21.036;2022-11-18T06:47:10;9.98;;;7.33;;
35506;SDS011;36461;52.018;21.036;2022-11-18T06:49:36;9.23;;;7.50;;
35506;SDS011;36461;52.018;21.036;2022-11-18T06:52:02;8.83;;;6.90;;
35506;SDS011;36461;52.018;21.036;2022-11-18T06:54:30;9.25;;;7.03;;
35506;SDS011;36461;52.018;21.036;2022-11-18T06:56:56;10.18;;;7.80;;
35506;SDS011;36461;52.018;21.036;2022-11-18T06:59:22;9.70;;;6.90;;
35506;SDS011;36461;52.018;21.036;2022-11-18T07:01:50;9.13;;;6.78;;
35506;SDS011;36461;52.018;21.036;2022-11-18T07:04:18;8.98;;;7.37;;
35506;SDS011;36461;52.018;21.036;2022-11-18T07:09:11;10.58;;;7.05;;
35506;SDS011;36461;52.018;21.036;2022-11-18T07:11:37;11.07;;;7.60;;
35506;SDS011;36461;52.018;21.036;2022-11-18T07:14:06;9.85;;;7.12;;
35506;SDS011;36461;52.018;21.036;2022-11-18T07:16:35;8.40;;;6.45;;
35506;SDS011;36461;52.018;21.036;2022-11-18T07:19:06;9.88;;;7.17;;
35506;SDS011;36461;52.018;21.036;2022-11-18T07:21:35;9.25;;;6.97;;
35506;SDS011;36461;52.018;21.036;2022-11-18T07:24:03;9.58;;;7.40;;
35506;SDS011;36461;52.018;21.036;2022-11-18T07:26:33;8.55;;;6.35;;
35506;SDS011;36461;52.018;21.036;2022-11-18T07:29:00;8.08;;;6.20;;
35506;SDS011;36461;52.018;21.036;2022-11-18T07:31:29;8.73;;;6.22;;
35506;SDS011;36461;52.018;21.036;2022-11-18T07:33:58;9.25;;;6.75;;
35506;SDS011;36461;52.018;21.036;2022-11-18T07:36:25;8.25;;;6.03;;
35506;SDS011;36461;52.018;21.036;2022-11-18T07:38:54;9.28;;;6.55;;
35506;SDS011;36461;52.018;21.036;2022-11-18T07:41:23;8.30;;;5.95;;
35506;SDS011;36461;52.018;21.036;2022-11-18T07:43:53;9.43;;;5.65;;
35506;SDS011;36461;52.018;21.036;2022-11-18T07:46:37;8.20;;;6.17;;
35506;SDS011;36461;52.018;21.036;2022-11-18T07:49:05;8.05;;;6.08;;
35506;SDS011;36461;52.018;21.036;2022-11-18T07:51:37;9.90;;;6.35;;
35506;SDS011;36461;52.018;21.036;2022-11-18T07:54:09;10.85;;;6.70;;
35506;SDS011;36461;52.018;21.036;2022-11-18T07:56:38;9.00;;;6.60;;
35506;SDS011;36461;52.018;21.036;2022-11-18T07:59:05;8.10;;;6.53;;
35506;SDS011;36461;52.018;21.036;2022-11-18T08:01:32;9.73;;;6.53;;
35506;SDS011;36461;52.018;21.036;2022-11-18T08:04:11;8.03;;;5.72;;
35506;SDS011;36461;52.018;21.036;2022-11-18T08:06:36;9.13;;;6.40;;
35506;SDS011;36461;52.018;21.036;2022-11-18T08:09:04;8.50;;;5.30;;
35506;SDS011;36461;52.018;21.036;2022-11-18T08:11:32;9.25;;;6.30;;
35506;SDS011;36461;52.018;21.036;2022-11-18T08:13:59;9.68;;;6.85;;
35506;SDS011;36461;52.018;21.036;2022-11-18T08:16:26;7.90;;;5.80;;
35506;SDS011;36461;52.018;21.036;2022-11-18T08:18:53;8.05;;;6.28;;
35506;SDS011;36461;52.018;21.036;2022-11-18T08:21:21;8.43;;;7.05;;
35506;SDS011;36461;52.018;21.036;2022-11-18T08:23:51;9.03;;;6.78;;
35506;SDS011;36461;52.018;21.036;2022-11-18T08:26:20;8.95;;;6.83;;
35506;SDS011;36461;52.018;21.036;2022-11-18T08:28:48;9.95;;;7.08;;
35506;SDS011;36461;52.018;21.036;2022-11-18T08:31:19;9.35;;;7.50;;
35506;SDS011;36461;52.018;21.036;2022-11-18T08:33:59;9.45;;;7.20;;
35506;SDS011;36461;52.018;21.036;2022-11-18T08:36:25;9.95;;;5.95;;
35506;SDS011;36461;52.018;21.036;2022-11-18T08:38:55;11.50;;;8.05;;
35506;SDS011;36461;52.018;21.036;2022-11-18T08:41:34;11.73;;;8.03;;
35506;SDS011;36461;52.018;21.036;2022-11-18T08:44:01;9.13;;;6.65;;
35506;SDS011;36461;52.018;21.036;2022-11-18T08:46:29;11.85;;;7.75;;
35506;SDS011;36461;52.018;21.036;2022-11-18T08:48:56;10.98;;;8.20;;
35506;SDS011;36461;52.018;21.036;2022-11-18T08:51:24;9.38;;;7.40;;
35506;SDS011;36461;52.018;21.036;2022-11-18T08:53:52;9.35;;;7.40;;
35506;SDS011;36461;52.018;21.036;2022-11-18T08:56:22;11.75;;;8.58;;
35506;SDS011;36461;52.018;21.036;2022-11-18T08:58:50;9.40;;;7.37;;
35506;SDS011;36461;52.018;21.036;2022-11-18T09:01:18;9.10;;;6.87;;
35506;SDS011;36461;52.018;21.036;2022-11-18T09:03:44;10.70;;;8.35;;
35506;SDS011;36461;52.018;21.036;2022-11-18T09:06:13;10.78;;;7.60;;
35506;SDS011;36461;52.018;21.036;2022-11-18T09:08:45;11.00;;;8.10;;
35506;SDS011;36461;52.018;21.036;2022-11-18T09:11:13;13.58;;;10.80;;
35506;SDS011;36461;52.018;21.036;2022-11-18T09:13:43;10.98;;;8.08;;
35506;SDS011;36461;52.018;21.036;2022-11-18T09:18:38;11.05;;;8.03;;
35506;SDS011;36461;52.018;21.036;2022-11-18T09:21:06;9.78;;;7.85;;
35506;SDS011;36461;52.018;21.036;2022-11-18T09:23:35;11.03;;;7.58;;
35506;SDS011;36461;52.018;21.036;2022-11-18T09:26:07;9.08;;;7.33;;
35506;SDS011;36461;52.018;21.036;2022-11-18T09:28:37;9.63;;;7.83;;
35506;SDS011;36461;52.018;21.036;2022-11-18T09:33:38;10.20;;;7.08;;
35506;SDS011;36461;52.018;21.036;2022-11-18T09:36:10;8.73;;;6.58;;
35506;SDS011;36461;52.018;21.036;2022-11-18T09:38:40;8.78;;;6.03;;
35506;SDS011;36461;52.018;21.036;2022-11-18T09:49:56;8.93;;;5.80;;
35506;SDS011;36461;52.018;21.036;2022-11-18T09:55:14;7.42;;;5.58;;
35506;SDS011;36461;52.018;21.036;2022-11-18T09:57:43;6.20;;;5.22;;
35506;SDS011;36461;52.018;21.036;2022-11-18T10:02:51;7.33;;;5.70;;
35506;SDS011;36461;52.018;21.036;2022-11-18T10:05:50;8.05;;;5.65;;
35506;SDS011;36461;52.018;21.036;2022-11-18T10:08:26;7.47;;;5.33;;
35506;SDS011;36461;52.018;21.036;2022-11-18T10:25:09;9.53;;;6.75;;
35506;SDS011;36461;52.018;21.036;2022-11-18T10:27:39;9.15;;;6.42;;
35506;SDS011;36461;52.018;21.036;2022-11-18T10:30:20;12.63;;;8.50;;
35506;SDS011;36461;52.018;21.036;2022-11-18T10:35:44;10.65;;;6.58;;
35506;SDS011;36461;52.018;21.036;2022-11-18T10:40:45;10.23;;;7.72;;
35506;SDS011;36461;52.018;21.036;2022-11-18T10:46:26;8.48;;;6.47;;
35506;SDS011;36461;52.018;21.036;2022-11-18T10:51:47;10.18;;;6.78;;
35506;SDS011;36461;52.018;21.036;2022-11-18T10:54:37;10.00;;;6.70;;
35506;SDS011;36461;52.018;21.036;2022-11-18T10:57:05;8.23;;;6.58;;
35506;SDS011;36461;52.018;21.036;2022-11-18T10:59:46;8.63;;;6.80;;
35506;SDS011;36461;52.018;21.036;2022-11-18T11:02:23;9.33;;;6.72;;
35506;SDS011;36461;52.018;21.036;2022-11-18T11:04:56;7.03;;;5.85;;
35506;SDS011;36461;52.018;21.036;2022-11-18T11:07:33;8.08;;;5.35;;
35506;SDS011;36461;52.018;21.036;2022-11-18T11:10:17;8.20;;;5.65;;
35506;SDS011;36461;52.018;21.036;2022-11-18T11:12:34;7.58;;;5.50;;
35506;SDS011;36461;52.018;21.036;2022-11-18T11:15:19;8.13;;;5.47;;
35506;SDS011;36461;52.018;21.036;2022-11-18T11:18:04;8.30;;;6.00;;
35506;SDS011;36461;52.018;21.036;2022-11-18T11:20:56;7.85;;;5.80;;
35506;SDS011;36461;52.018;21.036;2022-11-18T11:23:23;8.33;;;6.15;;
35506;SDS011;36461;52.018;21.036;2022-11-18T11:25:55;8.00;;;5.87;;
35506;SDS011;36461;52.018;21.036;2022-11-18T11:28:36;9.23;;;6.10;;
35506;SDS011;36461;52.018;21.036;2022-11-18T11:31:40;7.65;;;5.67;;
35506;SDS011;36461;52.018;21.036;2022-11-18T11:34:15;7.28;;;5.58;;
35506;SDS011;36461;52.018;21.036;2022-11-18T11:39:52;7.17;;;5.40;;
35506;SDS011;36461;52.018;21.036;2022-11-18T11:51:53;6.17;;;4.47;;
35506;SDS011;36461;52.018;21.036;2022-11-18T12:02:27;8.88;;;5.85;;
35506;SDS011;36461;52.018;21.036;2022-11-18T12:07:58;8.20;;;5.28;;
35506;SDS011;36461;52.018;21.036;2022-11-18T12:19:07;8.93;;;4.97;;
35506;SDS011;36461;52.018;21.036;2022-11-18T12:26:58;15.93;;;8.10;;
35506;SDS011;36461;52.018;21.036;2022-11-18T12:29:36;8.23;;;5.12;;
35506;SDS011;36461;52.018;21.036;2022-11-18T12:35:43;7.60;;;4.30;;
35506;SDS011;36461;52.018;21.036;2022-11-18T12:43:10;6.72;;;4.70;;
35506;SDS011;36461;52.018;21.036;2022-11-18T12:51:52;12.60;;;6.65;;
35506;SDS011;36461;52.018;21.036;2022-11-18T12:59:53;12.65;;;7.37;;
35506;SDS011;36461;52.018;21.036;2022-11-18T13:02:24;7.67;;;5.28;;
35506;SDS011;36461;52.018;21.036;2022-11-18T13:07:42;8.95;;;5.75;;
35506;SDS011;36461;52.018;21.036;2022-11-18T13:10:28;8.50;;;5.45;;
35506;SDS011;36461;52.018;21.036;2022-11-18T13:12:58;8.15;;;5.40;;
35506;SDS011;36461;52.018;21.036;2022-11-18T13:18:11;6.50;;;4.85;;
35506;SDS011;36461;52.018;21.036;2022-11-18T13:20:41;7.33;;;5.53;;
35506;SDS011;36461;52.018;21.036;2022-11-18T13:23:29;8.20;;;4.87;;
35506;SDS011;36461;52.018;21.036;2022-11-18T13:34:52;7.40;;;5.80;;
35506;SDS011;36461;52.018;21.036;2022-11-18T13:37:28;8.33;;;5.90;;
35506;SDS011;36461;52.018;21.036;2022-11-18T13:42:26;10.43;;;6.55;;
35506;SDS011;36461;52.018;21.036;2022-11-18T13:44:59;7.47;;;5.00;;
35506;SDS011;36461;52.018;21.036;2022-11-18T13:52:52;13.88;;;7.92;;
35506;SDS011;36461;52.018;21.036;2022-11-18T13:55:27;8.65;;;5.42;;
35506;SDS011;36461;52.018;21.036;2022-11-18T13:58:03;9.48;;;6.08;;
35506;SDS011;36461;52.018;21.036;2022-11-18T14:00:33;9.50;;;5.17;;
35506;SDS011;36461;52.018;21.036;2022-11-18T14:03:03;6.65;;;5.10;;
35506;SDS011;36461;52.018;21.036;2022-11-18T14:05:56;9.08;;;5.92;;
35506;SDS011;36461;52.018;21.036;2022-11-18T14:08:31;11.15;;;5.72;;
35506;SDS011;36461;52.018;21.036;2022-11-18T14:11:01;8.60;;;5.62;;
35506;SDS011;36461;52.018;21.036;2022-11-18T14:13:30;9.80;;;5.78;;
35506;SDS011;36461;52.018;21.036;2022-11-18T14:18:50;11.18;;;6.60;;
35506;SDS011;36461;52.018;21.036;2022-11-18T14:21:33;9.65;;;6.28;;
35506;SDS011;36461;52.018;21.036;2022-11-18T14:24:03;8.00;;;5.12;;
35506;SDS011;36461;52.018;21.036;2022-11-18T14:26:37;8.15;;;6.10;;
35506;SDS011;36461;52.018;21.036;2022-11-18T14:29:13;8.08;;;5.65;;
35506;SDS011;36461;52.018;21.036;2022-11-18T14:32:02;9.75;;;5.40;;
35506;SDS011;36461;52.018;21.036;2022-11-18T14:34:41;8.03;;;5.33;;
35506;SDS011;36461;52.018;21.036;2022-11-18T14:37:08;8.35;;;4.60;;
35506;SDS011;36461;52.018;21.036;2022-11-18T14:39:38;7.40;;;5.28;;
35506;SDS011;36461;52.018;21.036;2022-11-18T14:42:11;8.60;;;6.20;;
35506;SDS011;36461;52.018;21.036;2022-11-18T14:44:36;8.85;;;5.92;;
35506;SDS011;36461;52.018;21.036;2022-11-18T14:47:03;7.78;;;5.65;;
35506;SDS011;36461;52.018;21.036;2022-11-18T14:49:37;7.55;;;5.22;;
35506;SDS011;36461;52.018;21.036;2022-11-18T14:52:04;17.10;;;8.00;;
35506;SDS011;36461;52.018;21.036;2022-11-18T14:54:34;45.92;;;21.70;;
35506;SDS011;36461;52.018;21.036;2022-11-18T14:57:01;16.35;;;8.68;;
35506;SDS011;36461;52.018;21.036;2022-11-18T14:59:29;26.97;;;14.13;;
35506;SDS011;36461;52.018;21.036;2022-11-18T15:01:56;11.12;;;6.67;;
35506;SDS011;36461;52.018;21.036;2022-11-18T15:04:23;8.45;;;5.72;;
35506;SDS011;36461;52.018;21.036;2022-11-18T15:06:50;14.00;;;8.70;;
35506;SDS011;36461;52.018;21.036;2022-11-18T15:09:17;20.75;;;9.08;;
35506;SDS011;36461;52.018;21.036;2022-11-18T15:11:43;17.32;;;10.00;;
35506;SDS011;36461;52.018;21.036;2022-11-18T15:14:10;14.65;;;9.70;;
35506;SDS011;36461;52.018;21.036;2022-11-18T15:16:36;27.58;;;16.90;;
35506;SDS011;36461;52.018;21.036;2022-11-18T15:19:03;15.18;;;9.65;;
35506;SDS011;36461;52.018;21.036;2022-11-18T15:21:31;24.07;;;13.20;;
35506;SDS011;36461;52.018;21.036;2022-11-18T15:23:58;10.95;;;7.28;;
35506;SDS011;36461;52.018;21.036;2022-11-18T15:26:25;10.60;;;7.37;;
35506;SDS011;36461;52.018;21.036;2022-11-18T15:31:28;27.35;;;15.13;;
35506;SDS011;36461;52.018;21.036;2022-11-18T15:33:55;24.67;;;15.20;;
35506;SDS011;36461;52.018;21.036;2022-11-18T15:36:22;18.17;;;11.18;;
35506;SDS011;36461;52.018;21.036;2022-11-18T15:38:52;13.13;;;9.50;;
35506;SDS011;36461;52.018;21.036;2022-11-18T15:41:20;13.45;;;9.85;;
35506;SDS011;36461;52.018;21.036;2022-11-18T15:43:51;11.55;;;9.10;;
35506;SDS011;36461;52.018;21.036;2022-11-18T15:46:19;12.73;;;9.38;;
35506;SDS011;36461;52.018;21.036;2022-11-18T15:48:52;13.18;;;9.70;;
35506;SDS011;36461;52.018;21.036;2022-11-18T15:51:20;13.55;;;9.88;;
35506;SDS011;36461;52.018;21.036;2022-11-18T15:53:47;13.20;;;9.10;;
35506;SDS011;36461;52.018;21.036;2022-11-18T15:56:20;17.30;;;11.48;;
35506;SDS011;36461;52.018;21.036;2022-11-18T15:58:50;14.25;;;10.15;;
35506;SDS011;36461;52.018;21.036;2022-11-18T16:01:22;16.97;;;12.00;;
35506;SDS011;36461;52.018;21.036;2022-11-18T16:03:51;15.78;;;10.45;;
35506;SDS011;36461;52.018;21.036;2022-11-18T16:06:18;13.70;;;9.00;;
35506;SDS011;36461;52.018;21.036;2022-11-18T16:08:44;32.75;;;18.42;;
35506;SDS011;36461;52.018;21.036;2022-11-18T16:11:12;27.13;;;16.62;;
35506;SDS011;36461;52.018;21.036;2022-11-18T16:14:00;50.43;;;29.57;;
35506;SDS011;36461;52.018;21.036;2022-11-18T16:16:31;55.23;;;33.90;;
35506;SDS011;36461;52.018;21.036;2022-11-18T16:18:59;37.05;;;22.65;;
35506;SDS011;36461;52.018;21.036;2022-11-18T16:21:28;29.60;;;18.75;;
35506;SDS011;36461;52.018;21.036;2022-11-18T16:23:59;28.47;;;18.55;;
35506;SDS011;36461;52.018;21.036;2022-11-18T16:26:29;14.98;;;9.98;;
35506;SDS011;36461;52.018;21.036;2022-11-18T16:28:57;13.05;;;8.75;;
35506;SDS011;36461;52.018;21.036;2022-11-18T16:31:24;11.68;;;8.30;;
35506;SDS011;36461;52.018;21.036;2022-11-18T16:34:13;13.80;;;11.45;;
35506;SDS011;36461;52.018;21.036;2022-11-18T16:36:49;10.25;;;7.10;;
35506;SDS011;36461;52.018;21.036;2022-11-18T16:39:18;10.68;;;7.12;;
35506;SDS011;36461;52.018;21.036;2022-11-18T16:41:51;8.90;;;6.62;;
35506;SDS011;36461;52.018;21.036;2022-11-18T16:44:22;9.98;;;7.12;;
35506;SDS011;36461;52.018;21.036;2022-11-18T16:46:50;9.48;;;7.33;;
35506;SDS011;36461;52.018;21.036;2022-11-18T16:49:21;9.50;;;7.03;;
35506;SDS011;36461;52.018;21.036;2022-11-18T16:51:51;9.50;;;6.65;;
35506;SDS011;36461;52.018;21.036;2022-11-18T16:54:20;10.53;;;8.03;;
35506;SDS011;36461;52.018;21.036;2022-11-18T16:56:54;11.25;;;8.13;;
35506;SDS011;36461;52.018;21.036;2022-11-18T16:59:24;11.40;;;7.95;;
35506;SDS011;36461;52.018;21.036;2022-11-18T17:01:53;48.65;;;24.92;;
35506;SDS011;36461;52.018;21.036;2022-11-18T17:04:22;24.67;;;13.93;;
35506;SDS011;36461;52.018;21.036;2022-11-18T17:06:50;30.43;;;17.15;;
35506;SDS011;36461;52.018;21.036;2022-11-18T17:09:22;54.53;;;28.17;;
35506;SDS011;36461;52.018;21.036;2022-11-18T17:11:48;22.25;;;13.58;;
35506;SDS011;36461;52.018;21.036;2022-11-18T17:14:16;19.73;;;10.90;;
35506;SDS011;36461;52.018;21.036;2022-11-18T17:16:44;35.08;;;20.77;;
35506;SDS011;36461;52.018;21.036;2022-11-18T17:21:43;17.87;;;10.85;;
35506;SDS011;36461;52.018;21.036;2022-11-18T17:24:10;17.40;;;11.53;;
35506;SDS011;36461;52.018;21.036;2022-11-18T17:26:40;10.40;;;7.08;;
35506;SDS011;36461;52.018;21.036;2022-11-18T17:29:11;22.95;;;14.00;;